Portada
METAR-TAF:

METAR-TAF

Aeroports :

Tsingtao, Xina

latitud: 36-04N, longitud: 120-20E, altitud: 77 m

Observació

L'informe es va fer fa 45 minuts, a les 01:00 UTC
Vent 14 kt del Sud
Temperatura 22°C
Humitat 60%
Pressió 1010 hPa
Visibilitat 10 km o més
sense núvols per sota de 1500 mi sense presència de cumulonimbus.

METAR: ZSQD 270100Z 18007MPS CAVOK 22/14 Q1010 NOSIG

Hora: 09:45 (01:45 UTC)

Pronòstic

L'informe es va fer fa 4 hores i 32 minuts, a les 21:13 UTC
Pronòstic vàlid del 27 a les 00 UTC al 27 a les 24 UTC
Vent 8 kt del Sud
Visibilitat: 6000 m
Temporalment
l' 27 a les 05 UTC al 27 a les 11 UTC
Visibilitat: 2500 m
Cel ennuvolat a una alçada de 1000 ft
Cel ennuvolat a una alçada de 3000 ft
Escasses núvols a una alçada de 3000 ft, Cumulonimbus.
xàfecs de pluja

TAF: ZSQD 262113Z 2700/2724 18004MPS 6000 NSC TX24/2706Z TN14/2721Z TEMPO 2705/2711 2500 SHRA BKN010 BKN030 FEW030CB

Observacions i pronòstics meteorològics de més de 4000 aeroports (METAR i TAF).

Les estacions disponibles són els punts grocs i vermells al mapa.

Posi el ratolí al punt desitjat per veure el nom de l'estació.

Feu clic per veure les observacions i els pronòstics meteorològics.

Per canviar el mapa: feu clic els botons verds amb una creu de color negre per apropar; al botó verd amb un guió per allunyar la imatge; o en les fletxes verdes per a mapes adjacents.


METAR-TAF: